sensor_id;sensor_type;location;lat;lon;timestamp;pressure;altitude;pressure_sealevel;temperature
24586;BMP280;12743;52.262;6.172;2022-07-31T00:00:40;101489.97;;;20.82
24586;BMP280;12743;52.262;6.172;2022-07-31T00:03:06;101496.00;;;20.65
24586;BMP280;12743;52.262;6.172;2022-07-31T00:05:32;101490.31;;;20.77
24586;BMP280;12743;52.262;6.172;2022-07-31T00:07:58;101500.22;;;20.76
24586;BMP280;12743;52.262;6.172;2022-07-31T00:10:24;101500.13;;;20.45
24586;BMP280;12743;52.262;6.172;2022-07-31T00:12:49;101497.97;;;20.82
24586;BMP280;12743;52.262;6.172;2022-07-31T00:15:15;101492.59;;;20.71
24586;BMP280;12743;52.262;6.172;2022-07-31T00:17:41;101495.88;;;20.33
24586;BMP280;12743;52.262;6.172;2022-07-31T00:20:09;101479.94;;;20.51
24586;BMP280;12743;52.262;6.172;2022-07-31T00:22:37;101500.16;;;20.55
24586;BMP280;12743;52.262;6.172;2022-07-31T00:25:03;101482.66;;;20.68
24586;BMP280;12743;52.262;6.172;2022-07-31T00:27:28;101491.88;;;20.89
24586;BMP280;12743;52.262;6.172;2022-07-31T00:29:54;101496.06;;;20.79
24586;BMP280;12743;52.262;6.172;2022-07-31T00:32:19;101484.63;;;21.00
24586;BMP280;12743;52.262;6.172;2022-07-31T00:34:44;101469.72;;;20.88
24586;BMP280;12743;52.262;6.172;2022-07-31T00:37:10;101460.09;;;20.41
24586;BMP280;12743;52.262;6.172;2022-07-31T00:39:35;101479.47;;;20.28
24586;BMP280;12743;52.262;6.172;2022-07-31T00:42:01;101469.13;;;20.16
24586;BMP280;12743;52.262;6.172;2022-07-31T00:44:26;101465.34;;;20.27
24586;BMP280;12743;52.262;6.172;2022-07-31T00:46:52;101464.09;;;20.04
24586;BMP280;12743;52.262;6.172;2022-07-31T00:49:17;101470.22;;;20.04
24586;BMP280;12743;52.262;6.172;2022-07-31T00:51:43;101466.78;;;20.07
24586;BMP280;12743;52.262;6.172;2022-07-31T00:54:08;101456.91;;;20.15
24586;BMP280;12743;52.262;6.172;2022-07-31T00:56:34;101457.25;;;20.03
24586;BMP280;12743;52.262;6.172;2022-07-31T00:59:00;101458.78;;;20.07
24586;BMP280;12743;52.262;6.172;2022-07-31T01:01:26;101454.94;;;20.01
24586;BMP280;12743;52.262;6.172;2022-07-31T01:03:52;101459.88;;;19.96
24586;BMP280;12743;52.262;6.172;2022-07-31T01:06:18;101446.16;;;19.90
24586;BMP280;12743;52.262;6.172;2022-07-31T01:08:44;101450.72;;;19.90
24586;BMP280;12743;52.262;6.172;2022-07-31T01:11:16;101456.00;;;19.83
24586;BMP280;12743;52.262;6.172;2022-07-31T01:13:53;101452.53;;;19.78
24586;BMP280;12743;52.262;6.172;2022-07-31T01:16:22;101449.53;;;19.84
24586;BMP280;12743;52.262;6.172;2022-07-31T01:18:49;101450.25;;;19.73
24586;BMP280;12743;52.262;6.172;2022-07-31T01:21:27;101444.97;;;19.88
24586;BMP280;12743;52.262;6.172;2022-07-31T01:26:56;101446.47;;;19.82
24586;BMP280;12743;52.262;6.172;2022-07-31T01:29:35;101439.28;;;19.93
24586;BMP280;12743;52.262;6.172;2022-07-31T01:32:07;101434.38;;;20.02
24586;BMP280;12743;52.262;6.172;2022-07-31T01:37:51;101427.47;;;19.90
24586;BMP280;12743;52.262;6.172;2022-07-31T01:40:35;101426.16;;;19.63
24586;BMP280;12743;52.262;6.172;2022-07-31T01:43:09;101428.81;;;19.59
24586;BMP280;12743;52.262;6.172;2022-07-31T01:45:38;101433.50;;;19.76
24586;BMP280;12743;52.262;6.172;2022-07-31T01:48:07;101424.69;;;19.69
24586;BMP280;12743;52.262;6.172;2022-07-31T01:50:37;101396.81;;;19.59
24586;BMP280;12743;52.262;6.172;2022-07-31T01:53:03;101421.34;;;19.83
24586;BMP280;12743;52.262;6.172;2022-07-31T01:55:31;101425.56;;;19.91
24586;BMP280;12743;52.262;6.172;2022-07-31T01:57:58;101426.59;;;19.75
24586;BMP280;12743;52.262;6.172;2022-07-31T02:00:23;101409.59;;;19.98
24586;BMP280;12743;52.262;6.172;2022-07-31T02:02:50;101407.75;;;20.09
24586;BMP280;12743;52.262;6.172;2022-07-31T02:05:17;101414.88;;;19.91
24586;BMP280;12743;52.262;6.172;2022-07-31T02:07:45;101416.81;;;19.90
24586;BMP280;12743;52.262;6.172;2022-07-31T02:10:13;101417.00;;;19.57
24586;BMP280;12743;52.262;6.172;2022-07-31T02:12:42;101418.44;;;19.51
24586;BMP280;12743;52.262;6.172;2022-07-31T02:15:10;101417.38;;;19.59
24586;BMP280;12743;52.262;6.172;2022-07-31T02:17:40;101416.13;;;19.46
24586;BMP280;12743;52.262;6.172;2022-07-31T02:20:22;101410.47;;;19.47
24586;BMP280;12743;52.262;6.172;2022-07-31T02:22:49;101417.72;;;19.50
24586;BMP280;12743;52.262;6.172;2022-07-31T02:25:15;101417.31;;;19.48
24586;BMP280;12743;52.262;6.172;2022-07-31T02:27:41;101427.31;;;19.65
24586;BMP280;12743;52.262;6.172;2022-07-31T02:30:10;101428.91;;;19.73
24586;BMP280;12743;52.262;6.172;2022-07-31T02:32:37;101433.16;;;19.89
24586;BMP280;12743;52.262;6.172;2022-07-31T02:35:04;101422.78;;;19.66
24586;BMP280;12743;52.262;6.172;2022-07-31T02:37:33;101408.91;;;19.43
24586;BMP280;12743;52.262;6.172;2022-07-31T02:40:01;101428.44;;;19.61
24586;BMP280;12743;52.262;6.172;2022-07-31T02:42:27;101429.63;;;19.67
24586;BMP280;12743;52.262;6.172;2022-07-31T02:44:54;101420.09;;;19.66
24586;BMP280;12743;52.262;6.172;2022-07-31T02:47:20;101413.16;;;19.58
24586;BMP280;12743;52.262;6.172;2022-07-31T02:49:46;101402.25;;;19.70
24586;BMP280;12743;52.262;6.172;2022-07-31T02:52:13;101386.81;;;19.46
24586;BMP280;12743;52.262;6.172;2022-07-31T02:54:39;101377.63;;;19.36
24586;BMP280;12743;52.262;6.172;2022-07-31T02:57:05;101388.34;;;19.40
24586;BMP280;12743;52.262;6.172;2022-07-31T02:59:37;101386.03;;;19.38
24586;BMP280;12743;52.262;6.172;2022-07-31T03:02:03;101355.53;;;19.32
24586;BMP280;12743;52.262;6.172;2022-07-31T03:04:32;101385.63;;;19.36
24586;BMP280;12743;52.262;6.172;2022-07-31T03:06:58;101381.47;;;19.42
24586;BMP280;12743;52.262;6.172;2022-07-31T03:09:25;101379.53;;;19.36
24586;BMP280;12743;52.262;6.172;2022-07-31T03:12:02;101378.47;;;19.44
24586;BMP280;12743;52.262;6.172;2022-07-31T03:14:29;101383.72;;;19.33
24586;BMP280;12743;52.262;6.172;2022-07-31T03:16:56;101364.19;;;19.19
24586;BMP280;12743;52.262;6.172;2022-07-31T03:19:23;101358.72;;;19.01
24586;BMP280;12743;52.262;6.172;2022-07-31T03:21:50;101349.94;;;18.97
24586;BMP280;12743;52.262;6.172;2022-07-31T03:24:16;101363.53;;;19.36
24586;BMP280;12743;52.262;6.172;2022-07-31T03:26:42;101363.81;;;19.20
24586;BMP280;12743;52.262;6.172;2022-07-31T03:29:08;101359.19;;;19.14
24586;BMP280;12743;52.262;6.172;2022-07-31T03:31:33;101359.28;;;19.24
24586;BMP280;12743;52.262;6.172;2022-07-31T03:33:59;101340.94;;;19.12
24586;BMP280;12743;52.262;6.172;2022-07-31T03:36:25;101360.06;;;19.28
24586;BMP280;12743;52.262;6.172;2022-07-31T03:38:51;101348.63;;;19.21
24586;BMP280;12743;52.262;6.172;2022-07-31T03:41:28;101351.94;;;19.07
24586;BMP280;12743;52.262;6.172;2022-07-31T03:43:54;101347.38;;;19.08
24586;BMP280;12743;52.262;6.172;2022-07-31T03:46:21;101353.47;;;19.12
24586;BMP280;12743;52.262;6.172;2022-07-31T03:48:48;101351.59;;;19.12
24586;BMP280;12743;52.262;6.172;2022-07-31T03:51:16;101340.09;;;19.01
24586;BMP280;12743;52.262;6.172;2022-07-31T03:53:42;101343.31;;;19.28
24586;BMP280;12743;52.262;6.172;2022-07-31T03:56:14;101328.25;;;18.95
24586;BMP280;12743;52.262;6.172;2022-07-31T03:58:41;101344.38;;;19.16
24586;BMP280;12743;52.262;6.172;2022-07-31T04:01:07;101335.75;;;19.33
24586;BMP280;12743;52.262;6.172;2022-07-31T04:03:32;101351.75;;;19.33
24586;BMP280;12743;52.262;6.172;2022-07-31T04:06:18;101353.97;;;19.28
24586;BMP280;12743;52.262;6.172;2022-07-31T04:08:43;101353.44;;;19.08
24586;BMP280;12743;52.262;6.172;2022-07-31T04:11:09;101356.91;;;19.12
24586;BMP280;12743;52.262;6.172;2022-07-31T04:13:34;101349.31;;;19.14
24586;BMP280;12743;52.262;6.172;2022-07-31T04:16:01;101346.31;;;19.19
24586;BMP280;12743;52.262;6.172;2022-07-31T04:18:27;101327.19;;;19.03
24586;BMP280;12743;52.262;6.172;2022-07-31T04:20:53;101326.38;;;18.99
24586;BMP280;12743;52.262;6.172;2022-07-31T04:23:18;101335.19;;;19.07
24586;BMP280;12743;52.262;6.172;2022-07-31T04:26:04;101339.53;;;19.32
24586;BMP280;12743;52.262;6.172;2022-07-31T04:28:35;101325.69;;;19.09
24586;BMP280;12743;52.262;6.172;2022-07-31T04:31:01;101328.44;;;19.20
24586;BMP280;12743;52.262;6.172;2022-07-31T04:33:29;101339.16;;;19.27
24586;BMP280;12743;52.262;6.172;2022-07-31T04:35:55;101322.41;;;19.26
24586;BMP280;12743;52.262;6.172;2022-07-31T04:38:20;101334.84;;;19.12
24586;BMP280;12743;52.262;6.172;2022-07-31T04:40:47;101320.28;;;18.99
24586;BMP280;12743;52.262;6.172;2022-07-31T04:43:13;101332.19;;;19.15
24586;BMP280;12743;52.262;6.172;2022-07-31T04:45:38;101329.19;;;19.20
24586;BMP280;12743;52.262;6.172;2022-07-31T04:48:04;101338.63;;;19.07
24586;BMP280;12743;52.262;6.172;2022-07-31T04:50:29;101341.25;;;19.04
24586;BMP280;12743;52.262;6.172;2022-07-31T04:52:57;101343.59;;;19.12
24586;BMP280;12743;52.262;6.172;2022-07-31T04:55:23;101319.50;;;18.95
24586;BMP280;12743;52.262;6.172;2022-07-31T04:57:49;101338.16;;;18.95
24586;BMP280;12743;52.262;6.172;2022-07-31T05:00:14;101330.47;;;18.86
24586;BMP280;12743;52.262;6.172;2022-07-31T05:02:40;101338.50;;;18.93
24586;BMP280;12743;52.262;6.172;2022-07-31T05:05:07;101332.81;;;18.98
24586;BMP280;12743;52.262;6.172;2022-07-31T05:07:36;101320.97;;;18.92
24586;BMP280;12743;52.262;6.172;2022-07-31T05:10:07;101322.66;;;19.07
24586;BMP280;12743;52.262;6.172;2022-07-31T05:12:34;101319.50;;;18.95
24586;BMP280;12743;52.262;6.172;2022-07-31T05:14:59;101320.63;;;18.94
24586;BMP280;12743;52.262;6.172;2022-07-31T05:17:25;101317.53;;;18.85
24586;BMP280;12743;52.262;6.172;2022-07-31T05:20:10;101322.88;;;18.88
24586;BMP280;12743;52.262;6.172;2022-07-31T05:22:56;101319.81;;;18.86
24586;BMP280;12743;52.262;6.172;2022-07-31T05:25:38;101319.84;;;18.90
24586;BMP280;12743;52.262;6.172;2022-07-31T05:28:03;101320.13;;;18.77
24586;BMP280;12743;52.262;6.172;2022-07-31T05:30:29;101318.63;;;18.83
24586;BMP280;12743;52.262;6.172;2022-07-31T05:32:55;101320.16;;;18.81
24586;BMP280;12743;52.262;6.172;2022-07-31T05:35:20;101323.59;;;18.85
24586;BMP280;12743;52.262;6.172;2022-07-31T05:37:46;101306.31;;;18.65
24586;BMP280;12743;52.262;6.172;2022-07-31T05:40:12;101322.19;;;18.95
24586;BMP280;12743;52.262;6.172;2022-07-31T05:42:56;101325.94;;;18.90
24586;BMP280;12743;52.262;6.172;2022-07-31T05:45:29;101326.19;;;18.78
24586;BMP280;12743;52.262;6.172;2022-07-31T05:47:55;101337.38;;;18.94
24586;BMP280;12743;52.262;6.172;2022-07-31T05:50:20;101330.94;;;18.99
24586;BMP280;12743;52.262;6.172;2022-07-31T05:52:46;101332.53;;;19.07
24586;BMP280;12743;52.262;6.172;2022-07-31T05:55:29;101316.50;;;19.00
24586;BMP280;12743;52.262;6.172;2022-07-31T05:58:13;101329.53;;;19.15
24586;BMP280;12743;52.262;6.172;2022-07-31T06:00:41;101342.97;;;19.33
24586;BMP280;12743;52.262;6.172;2022-07-31T06:03:06;101330.44;;;19.33
24586;BMP280;12743;52.262;6.172;2022-07-31T06:05:58;101338.75;;;19.28
24586;BMP280;12743;52.262;6.172;2022-07-31T06:08:23;101331.25;;;19.44
24586;BMP280;12743;52.262;6.172;2022-07-31T06:10:50;101333.09;;;19.37
24586;BMP280;12743;52.262;6.172;2022-07-31T06:13:16;101330.88;;;19.46
24586;BMP280;12743;52.262;6.172;2022-07-31T06:15:42;101334.63;;;19.41
24586;BMP280;12743;52.262;6.172;2022-07-31T06:18:08;101340.78;;;19.49
24586;BMP280;12743;52.262;6.172;2022-07-31T06:20:34;101327.44;;;19.49
24586;BMP280;12743;52.262;6.172;2022-07-31T06:22:59;101332.09;;;19.62
24586;BMP280;12743;52.262;6.172;2022-07-31T06:25:30;101331.31;;;19.55
24586;BMP280;12743;52.262;6.172;2022-07-31T06:27:55;101325.09;;;19.33
24586;BMP280;12743;52.262;6.172;2022-07-31T06:30:21;101335.91;;;19.61
24586;BMP280;12743;52.262;6.172;2022-07-31T06:32:48;101318.75;;;19.59
24586;BMP280;12743;52.262;6.172;2022-07-31T06:35:14;101328.31;;;19.67
24586;BMP280;12743;52.262;6.172;2022-07-31T06:38:02;101334.06;;;19.69
24586;BMP280;12743;52.262;6.172;2022-07-31T06:40:34;101327.94;;;19.65
24586;BMP280;12743;52.262;6.172;2022-07-31T06:43:22;101314.59;;;19.65
24586;BMP280;12743;52.262;6.172;2022-07-31T06:46:06;101314.22;;;19.59
24586;BMP280;12743;52.262;6.172;2022-07-31T06:48:55;101326.81;;;19.69
24586;BMP280;12743;52.262;6.172;2022-07-31T06:51:20;101323.34;;;19.62
24586;BMP280;12743;52.262;6.172;2022-07-31T06:53:46;101320.66;;;19.58
24586;BMP280;12743;52.262;6.172;2022-07-31T06:56:12;101335.84;;;19.54
24586;BMP280;12743;52.262;6.172;2022-07-31T06:58:37;101305.69;;;19.36
24586;BMP280;12743;52.262;6.172;2022-07-31T07:01:02;101325.63;;;19.60
24586;BMP280;12743;52.262;6.172;2022-07-31T07:03:28;101303.53;;;19.56
24586;BMP280;12743;52.262;6.172;2022-07-31T07:05:54;101316.09;;;19.59
24586;BMP280;12743;52.262;6.172;2022-07-31T07:08:19;101326.75;;;19.59
24586;BMP280;12743;52.262;6.172;2022-07-31T07:10:47;101316.53;;;19.71
24586;BMP280;12743;52.262;6.172;2022-07-31T07:13:25;101312.38;;;19.81
24586;BMP280;12743;52.262;6.172;2022-07-31T07:15:51;101309.72;;;19.85
24586;BMP280;12743;52.262;6.172;2022-07-31T07:18:17;101319.66;;;19.88
24586;BMP280;12743;52.262;6.172;2022-07-31T07:20:50;101296.75;;;19.72
24586;BMP280;12743;52.262;6.172;2022-07-31T07:23:16;101306.28;;;19.84
24586;BMP280;12743;52.262;6.172;2022-07-31T07:26:11;101317.00;;;19.91
24586;BMP280;12743;52.262;6.172;2022-07-31T07:28:38;101311.34;;;20.00
24586;BMP280;12743;52.262;6.172;2022-07-31T07:34:24;101281.22;;;19.96
24586;BMP280;12743;52.262;6.172;2022-07-31T07:36:51;101259.91;;;19.99
24586;BMP280;12743;52.262;6.172;2022-07-31T07:39:22;101298.75;;;20.07
24586;BMP280;12743;52.262;6.172;2022-07-31T07:41:48;101292.31;;;20.19
24586;BMP280;12743;52.262;6.172;2022-07-31T07:44:15;101250.66;;;19.75
24586;BMP280;12743;52.262;6.172;2022-07-31T07:46:40;101290.75;;;20.11
24586;BMP280;12743;52.262;6.172;2022-07-31T07:49:07;101252.97;;;19.84
24586;BMP280;12743;52.262;6.172;2022-07-31T07:51:35;101262.91;;;20.01
24586;BMP280;12743;52.262;6.172;2022-07-31T07:54:20;101259.16;;;20.20
24586;BMP280;12743;52.262;6.172;2022-07-31T07:57:15;101284.69;;;20.28
24586;BMP280;12743;52.262;6.172;2022-07-31T08:00:00;101283.16;;;20.30
24586;BMP280;12743;52.262;6.172;2022-07-31T08:02:45;101302.63;;;20.45
24586;BMP280;12743;52.262;6.172;2022-07-31T08:05:14;101285.47;;;20.56
24586;BMP280;12743;52.262;6.172;2022-07-31T08:07:41;101311.81;;;20.79
24586;BMP280;12743;52.262;6.172;2022-07-31T08:10:20;101250.81;;;20.53
24586;BMP280;12743;52.262;6.172;2022-07-31T08:12:53;101274.03;;;20.73
24586;BMP280;12743;52.262;6.172;2022-07-31T08:15:24;101267.53;;;20.64
24586;BMP280;12743;52.262;6.172;2022-07-31T08:18:13;101258.41;;;20.68
24586;BMP280;12743;52.262;6.172;2022-07-31T08:20:38;101286.59;;;20.98
24586;BMP280;12743;52.262;6.172;2022-07-31T08:23:05;101275.13;;;21.04
24586;BMP280;12743;52.262;6.172;2022-07-31T08:25:31;101297.25;;;21.22
24586;BMP280;12743;52.262;6.172;2022-07-31T08:27:57;101294.19;;;21.10
24586;BMP280;12743;52.262;6.172;2022-07-31T08:30:22;101244.66;;;20.73
24586;BMP280;12743;52.262;6.172;2022-07-31T08:32:50;101275.94;;;20.87
24586;BMP280;12743;52.262;6.172;2022-07-31T08:35:21;101274.81;;;20.74
24586;BMP280;12743;52.262;6.172;2022-07-31T08:37:48;101266.41;;;20.68
24586;BMP280;12743;52.262;6.172;2022-07-31T08:40:16;101233.22;;;20.31
24586;BMP280;12743;52.262;6.172;2022-07-31T08:42:44;101273.66;;;20.57
24586;BMP280;12743;52.262;6.172;2022-07-31T08:45:09;101272.13;;;20.56
24586;BMP280;12743;52.262;6.172;2022-07-31T08:47:45;101301.13;;;20.79
24586;BMP280;12743;52.262;6.172;2022-07-31T08:50:15;101258.78;;;20.28
24586;BMP280;12743;52.262;6.172;2022-07-31T08:52:43;101313.66;;;20.47
24586;BMP280;12743;52.262;6.172;2022-07-31T08:55:16;101298.44;;;20.40
24586;BMP280;12743;52.262;6.172;2022-07-31T08:57:45;101267.56;;;20.25
24586;BMP280;12743;52.262;6.172;2022-07-31T09:00:13;101301.88;;;20.41
24586;BMP280;12743;52.262;6.172;2022-07-31T09:02:44;101277.44;;;20.14
24586;BMP280;12743;52.262;6.172;2022-07-31T09:05:38;101284.31;;;20.19
24586;BMP280;12743;52.262;6.172;2022-07-31T09:08:04;101271.34;;;20.24
24586;BMP280;12743;52.262;6.172;2022-07-31T09:10:30;101306.44;;;20.37
24586;BMP280;12743;52.262;6.172;2022-07-31T09:12:56;101282.03;;;20.35
24586;BMP280;12743;52.262;6.172;2022-07-31T09:15:28;101283.59;;;20.46
24586;BMP280;12743;52.262;6.172;2022-07-31T09:17:56;101283.94;;;20.34
24586;BMP280;12743;52.262;6.172;2022-07-31T09:20:24;101296.16;;;20.35
24586;BMP280;12743;52.262;6.172;2022-07-31T09:23:07;101288.88;;;20.22
24586;BMP280;12743;52.262;6.172;2022-07-31T09:25:37;101268.69;;;20.21
24586;BMP280;12743;52.262;6.172;2022-07-31T09:28:06;101280.50;;;20.23
24586;BMP280;12743;52.262;6.172;2022-07-31T09:30:33;101237.00;;;19.88
24586;BMP280;12743;52.262;6.172;2022-07-31T09:33:16;101289.25;;;20.27
24586;BMP280;12743;52.262;6.172;2022-07-31T09:36:11;101289.59;;;20.05
24586;BMP280;12743;52.262;6.172;2022-07-31T09:38:42;101273.66;;;20.29
24586;BMP280;12743;52.262;6.172;2022-07-31T09:41:27;101302.63;;;20.41
24586;BMP280;12743;52.262;6.172;2022-07-31T09:44:00;101304.53;;;20.41
24586;BMP280;12743;52.262;6.172;2022-07-31T09:46:41;101308.34;;;20.71
24586;BMP280;12743;52.262;6.172;2022-07-31T09:49:07;101303.75;;;20.97
24586;BMP280;12743;52.262;6.172;2022-07-31T09:51:42;101299.59;;;20.85
24586;BMP280;12743;52.262;6.172;2022-07-31T09:54:24;101296.53;;;20.76
24586;BMP280;12743;52.262;6.172;2022-07-31T09:56:53;101266.78;;;20.67
24586;BMP280;12743;52.262;6.172;2022-07-31T09:59:20;101253.06;;;20.68
24586;BMP280;12743;52.262;6.172;2022-07-31T10:01:47;101255.34;;;20.66
24586;BMP280;12743;52.262;6.172;2022-07-31T10:04:15;101286.22;;;20.85
24586;BMP280;12743;52.262;6.172;2022-07-31T10:06:41;101280.88;;;20.64
24586;BMP280;12743;52.262;6.172;2022-07-31T10:09:08;101271.34;;;20.84
24586;BMP280;12743;52.262;6.172;2022-07-31T10:11:52;101287.38;;;20.84
24586;BMP280;12743;52.262;6.172;2022-07-31T10:14:25;101277.47;;;20.92
24586;BMP280;12743;52.262;6.172;2022-07-31T10:16:55;101300.28;;;21.17
24586;BMP280;12743;52.262;6.172;2022-07-31T10:19:45;101292.66;;;21.19
24586;BMP280;12743;52.262;6.172;2022-07-31T10:22:52;101283.91;;;21.01
24586;BMP280;12743;52.262;6.172;2022-07-31T10:25:27;101290.41;;;21.04
24586;BMP280;12743;52.262;6.172;2022-07-31T10:27:53;101265.28;;;20.62
24586;BMP280;12743;52.262;6.172;2022-07-31T10:30:22;101275.56;;;20.78
24586;BMP280;12743;52.262;6.172;2022-07-31T10:32:52;101258.41;;;20.75
24586;BMP280;12743;52.262;6.172;2022-07-31T10:35:24;101253.06;;;20.37
24586;BMP280;12743;52.262;6.172;2022-07-31T10:38:10;101290.44;;;20.65
24586;BMP280;12743;52.262;6.172;2022-07-31T10:41:04;101283.97;;;20.62
24586;BMP280;12743;52.262;6.172;2022-07-31T10:43:50;101270.63;;;20.52
24586;BMP280;12743;52.262;6.172;2022-07-31T10:46:37;101258.03;;;20.45
24586;BMP280;12743;52.262;6.172;2022-07-31T10:49:42;101277.84;;;20.51
24586;BMP280;12743;52.262;6.172;2022-07-31T10:52:34;101271.75;;;20.40
24586;BMP280;12743;52.262;6.172;2022-07-31T10:55:14;101265.63;;;20.47
24586;BMP280;12743;52.262;6.172;2022-07-31T11:00:51;101224.47;;;20.06
24586;BMP280;12743;52.262;6.172;2022-07-31T11:03:21;101264.13;;;20.28
24586;BMP280;12743;52.262;6.172;2022-07-31T11:06:05;101237.78;;;19.92
24586;BMP280;12743;52.262;6.172;2022-07-31T11:08:51;101264.13;;;20.35
24586;BMP280;12743;52.262;6.172;2022-07-31T11:11:36;101257.66;;;20.36
24586;BMP280;12743;52.262;6.172;2022-07-31T11:14:35;101242.41;;;20.33
24586;BMP280;12743;52.262;6.172;2022-07-31T11:17:33;101256.50;;;20.34
24586;BMP280;12743;52.262;6.172;2022-07-31T11:20:28;101241.66;;;20.40
24586;BMP280;12743;52.262;6.172;2022-07-31T11:23:04;101248.50;;;20.62
24586;BMP280;12743;52.262;6.172;2022-07-31T11:25:31;101232.88;;;20.50
24586;BMP280;12743;52.262;6.172;2022-07-31T11:28:10;101250.41;;;20.68
24586;BMP280;12743;52.262;6.172;2022-07-31T11:31:04;101234.00;;;20.52
24586;BMP280;12743;52.262;6.172;2022-07-31T11:33:35;101236.28;;;20.64
24586;BMP280;12743;52.262;6.172;2022-07-31T11:38:31;101227.91;;;20.62
24586;BMP280;12743;52.262;6.172;2022-07-31T11:40:56;101249.63;;;20.68
24586;BMP280;12743;52.262;6.172;2022-07-31T11:43:22;101216.47;;;20.37
24586;BMP280;12743;52.262;6.172;2022-07-31T11:45:49;101232.09;;;20.67
24586;BMP280;12743;52.262;6.172;2022-07-31T11:48:16;101210.38;;;20.37
24586;BMP280;12743;52.262;6.172;2022-07-31T11:50:42;101206.97;;;20.29
24586;BMP280;12743;52.262;6.172;2022-07-31T11:53:08;101197.44;;;20.21
24586;BMP280;12743;52.262;6.172;2022-07-31T11:55:52;101225.25;;;20.48
24586;BMP280;12743;52.262;6.172;2022-07-31T11:58:20;101218.38;;;20.58
24586;BMP280;12743;52.262;6.172;2022-07-31T12:00:54;101227.53;;;20.57
24586;BMP280;12743;52.262;6.172;2022-07-31T12:03:27;101200.84;;;20.50
24586;BMP280;12743;52.262;6.172;2022-07-31T12:05:53;101213.03;;;20.58
24586;BMP280;12743;52.262;6.172;2022-07-31T12:08:19;101188.25;;;20.43
24586;BMP280;12743;52.262;6.172;2022-07-31T12:10:45;101233.97;;;20.77
24586;BMP280;12743;52.262;6.172;2022-07-31T12:13:13;101222.53;;;20.73
24586;BMP280;12743;52.262;6.172;2022-07-31T12:15:38;101211.50;;;20.74
24586;BMP280;12743;52.262;6.172;2022-07-31T12:18:04;101231.28;;;20.84
24586;BMP280;12743;52.262;6.172;2022-07-31T12:20:31;101216.81;;;20.85
24586;BMP280;12743;52.262;6.172;2022-07-31T12:23:01;101195.81;;;20.83
24586;BMP280;12743;52.262;6.172;2022-07-31T12:25:26;101203.47;;;20.78
24586;BMP280;12743;52.262;6.172;2022-07-31T12:27:55;101209.91;;;21.02
24586;BMP280;12743;52.262;6.172;2022-07-31T12:30:21;101214.44;;;21.15
24586;BMP280;12743;52.262;6.172;2022-07-31T12:32:49;101218.59;;;21.23
24586;BMP280;12743;52.262;6.172;2022-07-31T12:35:15;101199.91;;;21.09
24586;BMP280;12743;52.262;6.172;2022-07-31T12:37:43;101188.84;;;21.14
24586;BMP280;12743;52.262;6.172;2022-07-31T12:40:19;101211.78;;;21.12
24586;BMP280;12743;52.262;6.172;2022-07-31T12:42:45;101178.19;;;21.07
24586;BMP280;12743;52.262;6.172;2022-07-31T12:45:10;101164.53;;;20.84
24586;BMP280;12743;52.262;6.172;2022-07-31T12:47:36;101195.75;;;21.08
24586;BMP280;12743;52.262;6.172;2022-07-31T12:50:01;101178.19;;;21.07
24586;BMP280;12743;52.262;6.172;2022-07-31T12:52:28;101204.84;;;21.21
24586;BMP280;12743;52.262;6.172;2022-07-31T12:54:56;101199.19;;;21.16
24586;BMP280;12743;52.262;6.172;2022-07-31T12:57:21;101206.78;;;21.14
24586;BMP280;12743;52.262;6.172;2022-07-31T12:59:46;101159.16;;;20.98
24586;BMP280;12743;52.262;6.172;2022-07-31T13:02:13;101198.38;;;21.22
24586;BMP280;12743;52.262;6.172;2022-07-31T13:04:38;101173.63;;;21.04
24586;BMP280;12743;52.262;6.172;2022-07-31T13:07:04;101183.09;;;21.19
24586;BMP280;12743;52.262;6.172;2022-07-31T13:09:29;101194.53;;;21.23
24586;BMP280;12743;52.262;6.172;2022-07-31T13:11:56;101181.94;;;21.20
24586;BMP280;12743;52.262;6.172;2022-07-31T13:14:21;101146.91;;;21.11
24586;BMP280;12743;52.262;6.172;2022-07-31T13:16:53;101192.19;;;21.32
24586;BMP280;12743;52.262;6.172;2022-07-31T13:19:19;101172.41;;;21.23
24586;BMP280;12743;52.262;6.172;2022-07-31T13:21:45;101186.44;;;21.37
24586;BMP280;12743;52.262;6.172;2022-07-31T13:24:11;101169.63;;;21.40
24586;BMP280;12743;52.262;6.172;2022-07-31T13:26:38;101186.34;;;21.58
24586;BMP280;12743;52.262;6.172;2022-07-31T13:29:04;101156.19;;;21.58
24586;BMP280;12743;52.262;6.172;2022-07-31T13:31:30;101160.72;;;21.61
24586;BMP280;12743;52.262;6.172;2022-07-31T13:33:56;101178.66;;;21.64
24586;BMP280;12743;52.262;6.172;2022-07-31T13:36:22;101179.06;;;21.62
24586;BMP280;12743;52.262;6.172;2022-07-31T13:38:48;101170.31;;;21.58
24586;BMP280;12743;52.262;6.172;2022-07-31T13:41:13;101129.19;;;21.38
24586;BMP280;12743;52.262;6.172;2022-07-31T13:43:58;101133.84;;;21.27
24586;BMP280;12743;52.262;6.172;2022-07-31T13:46:24;101176.41;;;21.59
24586;BMP280;12743;52.262;6.172;2022-07-31T13:48:51;101172.47;;;21.77
24586;BMP280;12743;52.262;6.172;2022-07-31T13:51:17;101174.47;;;22.11
24586;BMP280;12743;52.262;6.172;2022-07-31T13:53:43;101170.25;;;22.17
24586;BMP280;12743;52.262;6.172;2022-07-31T13:56:08;101139.28;;;22.12
24586;BMP280;12743;52.262;6.172;2022-07-31T13:58:35;101144.66;;;22.49
24586;BMP280;12743;52.262;6.172;2022-07-31T14:01:00;101110.81;;;22.32
24586;BMP280;12743;52.262;6.172;2022-07-31T14:03:26;101161.50;;;22.50
24586;BMP280;12743;52.262;6.172;2022-07-31T14:05:52;101149.75;;;22.40
24586;BMP280;12743;52.262;6.172;2022-07-31T14:08:19;101095.81;;;22.05
24586;BMP280;12743;52.262;6.172;2022-07-31T14:10:46;101154.41;;;22.33
24586;BMP280;12743;52.262;6.172;2022-07-31T14:13:12;101123.31;;;22.05
24586;BMP280;12743;52.262;6.172;2022-07-31T14:15:38;101062.22;;;21.56
24586;BMP280;12743;52.262;6.172;2022-07-31T14:18:04;101112.34;;;21.93
24586;BMP280;12743;52.262;6.172;2022-07-31T14:20:29;101134.78;;;22.06
24586;BMP280;12743;52.262;6.172;2022-07-31T14:22:57;101158.34;;;22.21
24586;BMP280;12743;52.262;6.172;2022-07-31T14:25:22;101153.53;;;22.43
24586;BMP280;12743;52.262;6.172;2022-07-31T14:27:48;101144.41;;;22.37